To NAV CANADA Home Page Login to a new session Search on AWWS site Disclaimer Vers la page française équivalente Tips FAQ What's new on the site To the Forecasts and Observations / NOTAM section To "File a Flight Plan" website Publications and other links Update of the User's profile FIC Telephone Numbers My Weather Data Folder Route Weather Data Regional Weather Data Local Weather Data To the Forecasts and Observations / NOTAM section
Request Generated 11/13/2018 at 18:13:35 UTC . Weather information available at that time is displayed.

METAR/TAF

TORONTO/BUTTONVILLE MUNICIPAL/ON    

METAR CYKZ 131800Z 35009G15KT 14SM -SN FEW020 OVC045 OVC060 M01/M06 A3010 RMK CF1SC7SC1 SC TR SLP202=
SPECI CYKZ 131707Z 36011G18KT 14SM -SN FEW020 SCT030 OVC050 M01/M06 A3009 RMK CF1SC2SC5 SLP201=
METAR CYKZ 131700Z 35010G20KT 15SM FEW020 FEW035 BKN045 OVC055 M01/M06 A3010 RMK CF1SC1SC5SC1 SLP202=
METAR CYKZ 131600Z 35009G18KT 15SM FEW010 FEW015 OVC028 OVC050 M00/M04 A3009 RMK CF1SC2SC6SC1 CF TR SC TR SLP200=

TAF CYKZ 131738Z 1318/1406 31012KT P6SM -SHSN SCT020 BKN050 TEMPO
1318/1324 3SM -SHSN BKN020 OVC050 PROB30 1321/1324 11/2SM -SHSN
VV010
FM140000 29012G22KT P6SM SCT040
FM140500 29012KT 3SM -SHSN OVC020 PROB30 1405/1406 11/2SM -SHSN
OVC015
RMK NXT FCST BY 140000Z=
Your time UTC time
Weather data provided by Environment Canada and NAV CANADA